KHOB/HOB METAR and TAF weather

Enter ICAO airport designator
Station Type Date Time Source
KHOB METAR 2021/03/07 23:50 UTC NOAA

KHOB 072350Z 15013KT 10SM SKC 19/M02 A3018


Station Type Date Time Source
KHOB Decoded METAR 2021/03/07 23:50 UTC NOAA

Hobbs / Lea County, NM, United States (KHOB) 32-41N 103-13W
Mar 07, 2021 - 06:50 PM EST / 2021.03.07 2350 UTC
Wind: from the SSE (150 degrees) at 15 MPH (13 KT):0
Visibility: 10 mile(s):0
Sky conditions: clear
Temperature: 66 F (19 C)
Dew Point: 28 F (-2 C)
Relative Humidity: 24%
Pressure (altimeter): 30.18 in. Hg (1022 hPa)
ob: KHOB 072350Z 15013KT 10SM SKC 19/M02 A3018
cycle: 0

Station Type Date Time Source
KHOB TAF 2021/03/07 18:22 UTC NOAA

TAF KHOB 071720Z 0718/0818 15014G20KT P6SM FEW300
FM080100 15009KT P6SM SCT300

Example: see airport list